sensor_id;sensor_type;location;lat;lon;timestamp;pressure;altitude;pressure_sealevel;temperature;humidity
3464;BME280;3551;41.578;24.706;2023-03-01T00:01:38;91637.03;;;8.12;100.00
3464;BME280;3551;41.578;24.706;2023-03-01T00:04:08;91635.56;;;8.14;100.00
3464;BME280;3551;41.578;24.706;2023-03-01T00:06:35;91635.56;;;8.14;100.00
3464;BME280;3551;41.578;24.706;2023-03-01T00:09:02;91629.06;;;8.15;100.00
3464;BME280;3551;41.578;24.706;2023-03-01T00:11:30;91634.41;;;8.15;100.00
3464;BME280;3551;41.578;24.706;2023-03-01T00:13:58;91627.97;;;8.16;100.00
3464;BME280;3551;41.578;24.706;2023-03-01T00:16:26;91621.78;;;8.09;100.00
3464;BME280;3551;41.578;24.706;2023-03-01T00:18:53;91625.53;;;8.04;100.00
3464;BME280;3551;41.578;24.706;2023-03-01T00:21:22;91626.44;;;7.82;100.00
3464;BME280;3551;41.578;24.706;2023-03-01T00:23:49;91618.91;;;7.87;100.00
3464;BME280;3551;41.578;24.706;2023-03-01T00:26:16;91621.56;;;7.91;100.00
3464;BME280;3551;41.578;24.706;2023-03-01T00:28:44;91611.41;;;7.97;100.00
3464;BME280;3551;41.578;24.706;2023-03-01T00:31:13;91614.50;;;8.02;100.00
3464;BME280;3551;41.578;24.706;2023-03-01T00:33:41;91612.41;;;7.85;100.00
3464;BME280;3551;41.578;24.706;2023-03-01T00:36:08;91612.13;;;7.97;100.00
3464;BME280;3551;41.578;24.706;2023-03-01T00:38:40;91607.91;;;7.92;100.00
3464;BME280;3551;41.578;24.706;2023-03-01T00:41:07;91606.50;;;8.02;100.00
3464;BME280;3551;41.578;24.706;2023-03-01T00:43:35;91601.91;;;8.03;100.00
3464;BME280;3551;41.578;24.706;2023-03-01T00:46:03;91593.09;;;7.95;100.00
3464;BME280;3551;41.578;24.706;2023-03-01T00:48:31;91600.03;;;8.03;100.00
3464;BME280;3551;41.578;24.706;2023-03-01T00:51:03;91601.66;;;8.15;100.00
3464;BME280;3551;41.578;24.706;2023-03-01T00:53:30;91591.34;;;8.10;100.00
3464;BME280;3551;41.578;24.706;2023-03-01T00:55:58;91592.84;;;8.07;100.00
3464;BME280;3551;41.578;24.706;2023-03-01T00:58:25;91587.88;;;8.02;100.00
3464;BME280;3551;41.578;24.706;2023-03-01T01:00:53;91588.16;;;7.97;100.00
3464;BME280;3551;41.578;24.706;2023-03-01T01:03:20;91591.31;;;8.06;100.00
3464;BME280;3551;41.578;24.706;2023-03-01T01:05:50;91589.75;;;8.02;100.00
3464;BME280;3551;41.578;24.706;2023-03-01T01:08:16;91582.78;;;7.90;100.00
3464;BME280;3551;41.578;24.706;2023-03-01T01:10:45;91572.81;;;7.83;100.00
3464;BME280;3551;41.578;24.706;2023-03-01T01:13:14;91572.56;;;7.96;100.00
3464;BME280;3551;41.578;24.706;2023-03-01T01:15:40;91570.19;;;7.87;100.00
3464;BME280;3551;41.578;24.706;2023-03-01T01:18:09;91567.56;;;7.90;100.00
3464;BME280;3551;41.578;24.706;2023-03-01T01:20:36;91559.66;;;7.98;100.00
3464;BME280;3551;41.578;24.706;2023-03-01T01:23:05;91556.38;;;8.11;100.00
3464;BME280;3551;41.578;24.706;2023-03-01T01:25:35;91563.59;;;8.11;100.00
3464;BME280;3551;41.578;24.706;2023-03-01T01:28:02;91560.56;;;8.12;100.00
3464;BME280;3551;41.578;24.706;2023-03-01T01:30:30;91559.34;;;8.06;100.00
3464;BME280;3551;41.578;24.706;2023-03-01T01:32:57;91549.44;;;8.03;100.00
3464;BME280;3551;41.578;24.706;2023-03-01T01:35:24;91553.84;;;7.85;100.00
3464;BME280;3551;41.578;24.706;2023-03-01T01:37:53;91549.63;;;7.84;100.00
3464;BME280;3551;41.578;24.706;2023-03-01T01:40:19;91563.97;;;7.72;100.00
3464;BME280;3551;41.578;24.706;2023-03-01T01:42:49;91556.69;;;7.69;100.00
3464;BME280;3551;41.578;24.706;2023-03-01T01:45:24;91555.16;;;7.68;100.00
3464;BME280;3551;41.578;24.706;2023-03-01T01:47:56;91544.75;;;7.56;100.00
3464;BME280;3551;41.578;24.706;2023-03-01T01:50:23;91548.97;;;7.57;100.00
3464;BME280;3551;41.578;24.706;2023-03-01T01:53:03;91545.19;;;7.28;100.00
3464;BME280;3551;41.578;24.706;2023-03-01T01:55:31;91544.53;;;7.38;100.00
3464;BME280;3551;41.578;24.706;2023-03-01T01:58:01;91542.66;;;7.39;100.00
3464;BME280;3551;41.578;24.706;2023-03-01T02:00:31;91540.19;;;6.94;100.00
3464;BME280;3551;41.578;24.706;2023-03-01T02:03:00;91547.59;;;7.07;100.00
3464;BME280;3551;41.578;24.706;2023-03-01T02:05:29;91539.72;;;7.14;100.00
3464;BME280;3551;41.578;24.706;2023-03-01T02:08:00;91542.09;;;6.93;100.00
3464;BME280;3551;41.578;24.706;2023-03-01T02:10:27;91540.75;;;6.80;100.00
3464;BME280;3551;41.578;24.706;2023-03-01T02:12:54;91536.19;;;6.51;100.00
3464;BME280;3551;41.578;24.706;2023-03-01T02:15:22;91536.00;;;6.66;100.00
3464;BME280;3551;41.578;24.706;2023-03-01T02:17:50;91532.41;;;7.08;100.00
3464;BME280;3551;41.578;24.706;2023-03-01T02:20:22;91533.69;;;7.21;100.00
3464;BME280;3551;41.578;24.706;2023-03-01T02:22:51;91540.81;;;7.13;100.00
3464;BME280;3551;41.578;24.706;2023-03-01T02:25:27;91533.41;;;7.26;100.00
3464;BME280;3551;41.578;24.706;2023-03-01T02:27:56;91540.03;;;7.43;100.00
3464;BME280;3551;41.578;24.706;2023-03-01T02:30:30;91541.66;;;7.51;100.00
3464;BME280;3551;41.578;24.706;2023-03-01T02:32:57;91547.84;;;7.58;100.00
3464;BME280;3551;41.578;24.706;2023-03-01T02:35:28;91544.44;;;7.61;100.00
3464;BME280;3551;41.578;24.706;2023-03-01T02:37:56;91539.09;;;7.58;100.00
3464;BME280;3551;41.578;24.706;2023-03-01T02:40:27;91527.81;;;7.71;100.00
3464;BME280;3551;41.578;24.706;2023-03-01T02:42:56;91532.41;;;7.74;100.00
3464;BME280;3551;41.578;24.706;2023-03-01T02:45:24;91523.41;;;7.86;100.00
3464;BME280;3551;41.578;24.706;2023-03-01T02:47:54;91528.38;;;7.91;100.00
3464;BME280;3551;41.578;24.706;2023-03-01T02:50:24;91520.72;;;7.86;100.00
3464;BME280;3551;41.578;24.706;2023-03-01T02:52:55;91525.78;;;7.58;100.00
3464;BME280;3551;41.578;24.706;2023-03-01T02:55:24;91524.75;;;7.69;100.00
3464;BME280;3551;41.578;24.706;2023-03-01T02:57:51;91525.59;;;7.77;100.00
3464;BME280;3551;41.578;24.706;2023-03-01T03:00:18;91527.78;;;7.68;100.00
3464;BME280;3551;41.578;24.706;2023-03-01T03:02:46;91524.47;;;7.78;100.00
3464;BME280;3551;41.578;24.706;2023-03-01T03:05:15;91525.09;;;7.68;100.00
3464;BME280;3551;41.578;24.706;2023-03-01T03:07:43;91525.84;;;7.65;100.00
3464;BME280;3551;41.578;24.706;2023-03-01T03:10:13;91523.69;;;7.77;100.00
3464;BME280;3551;41.578;24.706;2023-03-01T03:12:40;91522.81;;;7.66;100.00
3464;BME280;3551;41.578;24.706;2023-03-01T03:15:09;91506.91;;;7.70;100.00
3464;BME280;3551;41.578;24.706;2023-03-01T03:17:38;91507.97;;;7.65;100.00
3464;BME280;3551;41.578;24.706;2023-03-01T03:20:08;91503.38;;;7.59;100.00
3464;BME280;3551;41.578;24.706;2023-03-01T03:22:39;91502.72;;;7.35;100.00
3464;BME280;3551;41.578;24.706;2023-03-01T03:25:06;91500.09;;;7.39;100.00
3464;BME280;3551;41.578;24.706;2023-03-01T03:27:35;91500.22;;;7.50;100.00
3464;BME280;3551;41.578;24.706;2023-03-01T03:30:03;91493.38;;;7.49;100.00
3464;BME280;3551;41.578;24.706;2023-03-01T03:32:34;91498.00;;;7.55;100.00
3464;BME280;3551;41.578;24.706;2023-03-01T03:35:03;91495.13;;;7.74;100.00
3464;BME280;3551;41.578;24.706;2023-03-01T03:37:35;91508.56;;;7.85;100.00
3464;BME280;3551;41.578;24.706;2023-03-01T03:40:21;91511.59;;;7.83;100.00
3464;BME280;3551;41.578;24.706;2023-03-01T03:42:48;91512.66;;;7.75;100.00
3464;BME280;3551;41.578;24.706;2023-03-01T03:45:14;91514.13;;;7.69;100.00
3464;BME280;3551;41.578;24.706;2023-03-01T03:47:41;91514.44;;;7.64;100.00
3464;BME280;3551;41.578;24.706;2023-03-01T03:50:08;91506.84;;;7.33;100.00
3464;BME280;3551;41.578;24.706;2023-03-01T03:52:37;91507.03;;;7.14;100.00
3464;BME280;3551;41.578;24.706;2023-03-01T03:55:04;91501.53;;;7.33;100.00
3464;BME280;3551;41.578;24.706;2023-03-01T03:57:35;91509.53;;;7.33;100.00
3464;BME280;3551;41.578;24.706;2023-03-01T04:02:49;91507.25;;;7.02;100.00
3464;BME280;3551;41.578;24.706;2023-03-01T04:05:17;91503.03;;;7.30;100.00
3464;BME280;3551;41.578;24.706;2023-03-01T04:07:44;91500.84;;;7.40;100.00
3464;BME280;3551;41.578;24.706;2023-03-01T04:10:11;91500.31;;;7.23;100.00
3464;BME280;3551;41.578;24.706;2023-03-01T04:12:41;91507.91;;;7.25;100.00
3464;BME280;3551;41.578;24.706;2023-03-01T04:15:09;91504.28;;;7.40;100.00
3464;BME280;3551;41.578;24.706;2023-03-01T04:17:43;91503.97;;;7.45;100.00
3464;BME280;3551;41.578;24.706;2023-03-01T04:20:10;91495.69;;;7.54;100.00
3464;BME280;3551;41.578;24.706;2023-03-01T04:22:42;91501.47;;;7.26;100.00
3464;BME280;3551;41.578;24.706;2023-03-01T04:25:12;91504.59;;;7.02;100.00
3464;BME280;3551;41.578;24.706;2023-03-01T04:27:40;91501.72;;;7.14;100.00
3464;BME280;3551;41.578;24.706;2023-03-01T04:30:10;91501.91;;;7.31;100.00
3464;BME280;3551;41.578;24.706;2023-03-01T04:32:37;91499.94;;;7.58;100.00
3464;BME280;3551;41.578;24.706;2023-03-01T04:35:05;91498.41;;;7.57;100.00
3464;BME280;3551;41.578;24.706;2023-03-01T04:37:33;91507.47;;;7.53;100.00
3464;BME280;3551;41.578;24.706;2023-03-01T04:40:00;91509.25;;;7.42;100.00
3464;BME280;3551;41.578;24.706;2023-03-01T04:42:27;91500.66;;;7.55;100.00
3464;BME280;3551;41.578;24.706;2023-03-01T04:44:54;91501.88;;;7.61;100.00
3464;BME280;3551;41.578;24.706;2023-03-01T04:47:22;91511.84;;;7.71;100.00
3464;BME280;3551;41.578;24.706;2023-03-01T04:49:48;91509.38;;;7.52;100.00
3464;BME280;3551;41.578;24.706;2023-03-01T04:52:15;91515.75;;;7.44;100.00
3464;BME280;3551;41.578;24.706;2023-03-01T04:54:42;91507.09;;;7.54;100.00
3464;BME280;3551;41.578;24.706;2023-03-01T04:57:09;91506.66;;;7.49;100.00
3464;BME280;3551;41.578;24.706;2023-03-01T04:59:35;91502.44;;;7.44;100.00
3464;BME280;3551;41.578;24.706;2023-03-01T05:02:02;91505.38;;;7.35;100.00
3464;BME280;3551;41.578;24.706;2023-03-01T05:04:30;91499.44;;;7.49;100.00
3464;BME280;3551;41.578;24.706;2023-03-01T05:06:59;91501.09;;;7.27;100.00
3464;BME280;3551;41.578;24.706;2023-03-01T05:09:28;91499.31;;;7.05;100.00
3464;BME280;3551;41.578;24.706;2023-03-01T05:11:55;91505.66;;;7.27;100.00
3464;BME280;3551;41.578;24.706;2023-03-01T05:14:23;91504.19;;;7.29;100.00
3464;BME280;3551;41.578;24.706;2023-03-01T05:16:50;91507.59;;;7.30;100.00
3464;BME280;3551;41.578;24.706;2023-03-01T05:19:17;91504.31;;;7.10;100.00
3464;BME280;3551;41.578;24.706;2023-03-01T05:21:49;91504.03;;;6.89;100.00
3464;BME280;3551;41.578;24.706;2023-03-01T05:24:29;91505.81;;;6.78;100.00
3464;BME280;3551;41.578;24.706;2023-03-01T05:26:56;91504.69;;;7.09;100.00
3464;BME280;3551;41.578;24.706;2023-03-01T05:29:24;91513.59;;;7.23;100.00
3464;BME280;3551;41.578;24.706;2023-03-01T05:31:51;91509.94;;;7.35;100.00
3464;BME280;3551;41.578;24.706;2023-03-01T05:34:18;91515.28;;;7.38;100.00
3464;BME280;3551;41.578;24.706;2023-03-01T05:36:49;91517.44;;;7.26;100.00
3464;BME280;3551;41.578;24.706;2023-03-01T05:39:18;91519.66;;;7.20;100.00
3464;BME280;3551;41.578;24.706;2023-03-01T05:41:46;91524.00;;;7.35;100.00
3464;BME280;3551;41.578;24.706;2023-03-01T05:44:13;91518.81;;;7.46;100.00
3464;BME280;3551;41.578;24.706;2023-03-01T05:46:39;91520.41;;;7.21;100.00
3464;BME280;3551;41.578;24.706;2023-03-01T05:49:06;91524.84;;;7.43;100.00
3464;BME280;3551;41.578;24.706;2023-03-01T05:51:32;91522.75;;;7.59;100.00
3464;BME280;3551;41.578;24.706;2023-03-01T05:54:03;91527.66;;;7.57;100.00
3464;BME280;3551;41.578;24.706;2023-03-01T05:56:32;91534.88;;;7.57;100.00
3464;BME280;3551;41.578;24.706;2023-03-01T05:58:58;91527.38;;;7.66;100.00
3464;BME280;3551;41.578;24.706;2023-03-01T06:01:25;91530.81;;;7.66;100.00
3464;BME280;3551;41.578;24.706;2023-03-01T06:03:52;91532.75;;;7.36;100.00
3464;BME280;3551;41.578;24.706;2023-03-01T06:06:19;91528.13;;;7.29;100.00
3464;BME280;3551;41.578;24.706;2023-03-01T06:08:46;91537.06;;;7.48;100.00
3464;BME280;3551;41.578;24.706;2023-03-01T06:11:14;91541.66;;;7.21;100.00
3464;BME280;3551;41.578;24.706;2023-03-01T06:13:41;91543.38;;;7.36;100.00
3464;BME280;3551;41.578;24.706;2023-03-01T06:16:08;91541.22;;;6.86;100.00
3464;BME280;3551;41.578;24.706;2023-03-01T06:18:35;91535.50;;;7.13;100.00
3464;BME280;3551;41.578;24.706;2023-03-01T06:21:01;91528.41;;;6.95;100.00
3464;BME280;3551;41.578;24.706;2023-03-01T06:23:28;91537.31;;;7.06;100.00
3464;BME280;3551;41.578;24.706;2023-03-01T06:25:55;91537.13;;;7.21;100.00
3464;BME280;3551;41.578;24.706;2023-03-01T06:28:23;91537.22;;;7.28;100.00
3464;BME280;3551;41.578;24.706;2023-03-01T06:30:50;91536.31;;;7.47;100.00
3464;BME280;3551;41.578;24.706;2023-03-01T06:33:17;91533.44;;;7.29;100.00
3464;BME280;3551;41.578;24.706;2023-03-01T06:35:48;91528.88;;;7.30;100.00
3464;BME280;3551;41.578;24.706;2023-03-01T06:38:18;91533.34;;;7.22;100.00
3464;BME280;3551;41.578;24.706;2023-03-01T06:40:51;91541.94;;;7.42;100.00
3464;BME280;3551;41.578;24.706;2023-03-01T06:43:24;91545.94;;;7.59;100.00
3464;BME280;3551;41.578;24.706;2023-03-01T06:45:52;91547.84;;;7.62;100.00
3464;BME280;3551;41.578;24.706;2023-03-01T06:48:19;91554.47;;;7.75;100.00
3464;BME280;3551;41.578;24.706;2023-03-01T06:50:47;91544.47;;;7.65;100.00
3464;BME280;3551;41.578;24.706;2023-03-01T06:53:14;91553.84;;;7.52;100.00
3464;BME280;3551;41.578;24.706;2023-03-01T06:55:41;91552.09;;;7.33;100.00
3464;BME280;3551;41.578;24.706;2023-03-01T06:58:08;91552.22;;;7.44;100.00
3464;BME280;3551;41.578;24.706;2023-03-01T07:00:36;91552.00;;;7.56;100.00
3464;BME280;3551;41.578;24.706;2023-03-01T07:03:05;91553.75;;;7.45;100.00
3464;BME280;3551;41.578;24.706;2023-03-01T07:05:33;91549.16;;;7.42;100.00
3464;BME280;3551;41.578;24.706;2023-03-01T07:07:59;91556.00;;;7.43;100.00
3464;BME280;3551;41.578;24.706;2023-03-01T07:16:25;91546.38;;;7.31;100.00
3464;BME280;3551;41.578;24.706;2023-03-01T07:18:52;91548.50;;;7.52;100.00
3464;BME280;3551;41.578;24.706;2023-03-01T07:21:19;91538.38;;;7.31;100.00
3464;BME280;3551;41.578;24.706;2023-03-01T07:23:47;91545.53;;;7.23;100.00
3464;BME280;3551;41.578;24.706;2023-03-01T07:26:14;91547.47;;;7.30;100.00
3464;BME280;3551;41.578;24.706;2023-03-01T07:28:45;91545.06;;;7.18;100.00
3464;BME280;3551;41.578;24.706;2023-03-01T07:31:12;91545.91;;;7.25;100.00
3464;BME280;3551;41.578;24.706;2023-03-01T07:33:40;91546.19;;;7.47;100.00
3464;BME280;3551;41.578;24.706;2023-03-01T07:36:07;91544.66;;;7.16;100.00
3464;BME280;3551;41.578;24.706;2023-03-01T07:38:35;91548.25;;;7.30;100.00
3464;BME280;3551;41.578;24.706;2023-03-01T07:41:05;91540.88;;;7.50;100.00
3464;BME280;3551;41.578;24.706;2023-03-01T07:43:32;91548.84;;;7.47;100.00
3464;BME280;3551;41.578;24.706;2023-03-01T07:46:00;91541.16;;;7.38;100.00
3464;BME280;3551;41.578;24.706;2023-03-01T07:48:26;91551.38;;;7.06;100.00
3464;BME280;3551;41.578;24.706;2023-03-01T07:50:55;91547.13;;;7.02;100.00
3464;BME280;3551;41.578;24.706;2023-03-01T07:53:24;91544.88;;;7.04;100.00
3464;BME280;3551;41.578;24.706;2023-03-01T07:55:59;91544.03;;;7.26;100.00
3464;BME280;3551;41.578;24.706;2023-03-01T07:58:26;91536.94;;;7.37;100.00
3464;BME280;3551;41.578;24.706;2023-03-01T08:00:53;91545.31;;;7.06;100.00
3464;BME280;3551;41.578;24.706;2023-03-01T08:03:19;91543.88;;;7.15;100.00
3464;BME280;3551;41.578;24.706;2023-03-01T08:05:46;91539.47;;;7.26;100.00
3464;BME280;3551;41.578;24.706;2023-03-01T08:08:14;91535.38;;;7.32;100.00
3464;BME280;3551;41.578;24.706;2023-03-01T08:10:42;91530.63;;;7.49;100.00
3464;BME280;3551;41.578;24.706;2023-03-01T08:13:10;91532.25;;;7.60;100.00
3464;BME280;3551;41.578;24.706;2023-03-01T08:15:37;91529.00;;;7.41;100.00
3464;BME280;3551;41.578;24.706;2023-03-01T08:18:03;91529.56;;;7.57;100.00
3464;BME280;3551;41.578;24.706;2023-03-01T08:20:31;91525.09;;;7.68;100.00
3464;BME280;3551;41.578;24.706;2023-03-01T08:22:58;91528.97;;;7.70;100.00
3464;BME280;3551;41.578;24.706;2023-03-01T08:25:26;91529.69;;;7.71;100.00
3464;BME280;3551;41.578;24.706;2023-03-01T08:27:53;91526.59;;;7.65;100.00
3464;BME280;3551;41.578;24.706;2023-03-01T08:30:20;91529.59;;;7.60;100.00
3464;BME280;3551;41.578;24.706;2023-03-01T08:32:49;91522.91;;;7.77;100.00
3464;BME280;3551;41.578;24.706;2023-03-01T08:35:16;91524.97;;;7.90;100.00
3464;BME280;3551;41.578;24.706;2023-03-01T08:37:43;91518.88;;;7.90;100.00
3464;BME280;3551;41.578;24.706;2023-03-01T08:40:10;91528.38;;;7.87;100.00
3464;BME280;3551;41.578;24.706;2023-03-01T08:42:40;91522.16;;;7.76;100.00
3464;BME280;3551;41.578;24.706;2023-03-01T08:45:11;91521.41;;;7.79;100.00
3464;BME280;3551;41.578;24.706;2023-03-01T08:47:39;91525.28;;;7.82;100.00
3464;BME280;3551;41.578;24.706;2023-03-01T08:50:06;91520.03;;;7.92;100.00
3464;BME280;3551;41.578;24.706;2023-03-01T08:52:33;91517.03;;;7.98;100.00
3464;BME280;3551;41.578;24.706;2023-03-01T08:55:00;91524.28;;;8.01;100.00
3464;BME280;3551;41.578;24.706;2023-03-01T08:57:27;91519.09;;;8.11;100.00
3464;BME280;3551;41.578;24.706;2023-03-01T08:59:55;91519.56;;;8.24;100.00
3464;BME280;3551;41.578;24.706;2023-03-01T09:02:22;91528.84;;;8.37;100.00
3464;BME280;3551;41.578;24.706;2023-03-01T09:04:49;91519.63;;;8.27;100.00
3464;BME280;3551;41.578;24.706;2023-03-01T09:07:19;91517.84;;;8.42;100.00
3464;BME280;3551;41.578;24.706;2023-03-01T09:09:45;91513.00;;;8.55;100.00
3464;BME280;3551;41.578;24.706;2023-03-01T09:12:15;91516.03;;;8.57;100.00
3464;BME280;3551;41.578;24.706;2023-03-01T09:14:41;91518.25;;;8.47;100.00
3464;BME280;3551;41.578;24.706;2023-03-01T09:17:09;91513.75;;;8.55;100.00
3464;BME280;3551;41.578;24.706;2023-03-01T09:19:36;91513.09;;;8.69;100.00
3464;BME280;3551;41.578;24.706;2023-03-01T09:22:03;91513.50;;;8.74;100.00
3464;BME280;3551;41.578;24.706;2023-03-01T09:24:30;91495.59;;;8.75;100.00
3464;BME280;3551;41.578;24.706;2023-03-01T09:26:57;91502.78;;;8.67;100.00
3464;BME280;3551;41.578;24.706;2023-03-01T09:29:24;91493.31;;;8.77;100.00
3464;BME280;3551;41.578;24.706;2023-03-01T09:31:54;91497.84;;;8.73;100.00
3464;BME280;3551;41.578;24.706;2023-03-01T09:34:25;91503.25;;;8.80;100.00
3464;BME280;3551;41.578;24.706;2023-03-01T09:36:53;91498.72;;;8.91;100.00
3464;BME280;3551;41.578;24.706;2023-03-01T09:39:20;91494.16;;;8.91;100.00
3464;BME280;3551;41.578;24.706;2023-03-01T09:41:48;91494.19;;;8.95;100.00
3464;BME280;3551;41.578;24.706;2023-03-01T09:44:18;91496.50;;;9.00;100.00
3464;BME280;3551;41.578;24.706;2023-03-01T09:46:46;91498.06;;;9.08;100.00
3464;BME280;3551;41.578;24.706;2023-03-01T09:49:14;91498.03;;;9.01;100.00
3464;BME280;3551;41.578;24.706;2023-03-01T09:51:47;91496.84;;;8.95;100.00
3464;BME280;3551;41.578;24.706;2023-03-01T09:54:21;91497.66;;;9.02;100.00
3464;BME280;3551;41.578;24.706;2023-03-01T09:59:37;91495.41;;;9.04;100.00
3464;BME280;3551;41.578;24.706;2023-03-01T10:02:18;91499.84;;;8.83;100.00
3464;BME280;3551;41.578;24.706;2023-03-01T10:04:50;91485.75;;;8.86;100.00
3464;BME280;3551;41.578;24.706;2023-03-01T10:07:25;91496.81;;;8.88;100.00
3464;BME280;3551;41.578;24.706;2023-03-01T10:09:56;91499.03;;;8.79;100.00
3464;BME280;3551;41.578;24.706;2023-03-01T10:12:25;91485.44;;;8.36;100.00
3464;BME280;3551;41.578;24.706;2023-03-01T10:14:55;91484.84;;;8.64;100.00
3464;BME280;3551;41.578;24.706;2023-03-01T10:17:28;91487.63;;;8.78;100.00
3464;BME280;3551;41.578;24.706;2023-03-01T10:20:05;91490.69;;;8.80;100.00
3464;BME280;3551;41.578;24.706;2023-03-01T10:22:38;91473.56;;;8.88;100.00
3464;BME280;3551;41.578;24.706;2023-03-01T10:25:05;91476.69;;;9.01;100.00
3464;BME280;3551;41.578;24.706;2023-03-01T10:27:34;91475.59;;;9.09;100.00
3464;BME280;3551;41.578;24.706;2023-03-01T10:30:10;91477.00;;;8.89;100.00
3464;BME280;3551;41.578;24.706;2023-03-01T10:32:41;91482.03;;;9.08;100.00
3464;BME280;3551;41.578;24.706;2023-03-01T10:35:15;91476.00;;;9.18;100.00
3464;BME280;3551;41.578;24.706;2023-03-01T10:37:52;91479.81;;;9.17;100.00
3464;BME280;3551;41.578;24.706;2023-03-01T10:40:24;91477.53;;;9.16;100.00
3464;BME280;3551;41.578;24.706;2023-03-01T10:42:51;91484.00;;;9.15;100.00
3464;BME280;3551;41.578;24.706;2023-03-01T10:45:27;91473.03;;;9.34;100.00
3464;BME280;3551;41.578;24.706;2023-03-01T10:48:08;91471.44;;;9.19;100.00
3464;BME280;3551;41.578;24.706;2023-03-01T10:50:41;91470.38;;;9.34;100.00
3464;BME280;3551;41.578;24.706;2023-03-01T10:53:19;91466.88;;;9.19;100.00
3464;BME280;3551;41.578;24.706;2023-03-01T10:55:59;91466.50;;;9.21;100.00
3464;BME280;3551;41.578;24.706;2023-03-01T10:58:26;91456.91;;;9.09;100.00
3464;BME280;3551;41.578;24.706;2023-03-01T11:00:57;91464.88;;;9.02;100.00
3464;BME280;3551;41.578;24.706;2023-03-01T11:03:32;91455.19;;;8.73;100.00
3464;BME280;3551;41.578;24.706;2023-03-01T11:09:30;91446.53;;;8.93;100.00
3464;BME280;3551;41.578;24.706;2023-03-01T11:12:17;91434.69;;;8.87;100.00
3464;BME280;3551;41.578;24.706;2023-03-01T11:18:25;91428.56;;;8.76;100.00
3464;BME280;3551;41.578;24.706;2023-03-01T11:21:17;91430.34;;;8.58;100.00
3464;BME280;3551;41.578;24.706;2023-03-01T11:33:21;91426.41;;;9.03;100.00
3464;BME280;3551;41.578;24.706;2023-03-01T11:39:36;91418.66;;;8.77;100.00
3464;BME280;3551;41.578;24.706;2023-03-01T11:45:11;91406.53;;;8.90;100.00
3464;BME280;3551;41.578;24.706;2023-03-01T11:47:46;91409.28;;;9.08;100.00
3464;BME280;3551;41.578;24.706;2023-03-01T11:50:28;91409.31;;;9.22;100.00
3464;BME280;3551;41.578;24.706;2023-03-01T11:56:57;91404.78;;;9.33;100.00
3464;BME280;3551;41.578;24.706;2023-03-01T12:00:38;91399.84;;;9.42;100.00
3464;BME280;3551;41.578;24.706;2023-03-01T12:03:46;91401.38;;;9.50;100.00
3464;BME280;3551;41.578;24.706;2023-03-01T12:06:44;91399.88;;;9.59;100.00
3464;BME280;3551;41.578;24.706;2023-03-01T12:09:30;91396.81;;;9.54;100.00
3464;BME280;3551;41.578;24.706;2023-03-01T12:12:27;91398.31;;;9.44;100.00
3464;BME280;3551;41.578;24.706;2023-03-01T12:18:46;91393.34;;;9.43;100.00
3464;BME280;3551;41.578;24.706;2023-03-01T12:28:00;91386.78;;;9.01;100.00
3464;BME280;3551;41.578;24.706;2023-03-01T12:34:13;91388.38;;;9.31;100.00
3464;BME280;3551;41.578;24.706;2023-03-01T12:37:09;91381.50;;;9.26;100.00
3464;BME280;3551;41.578;24.706;2023-03-01T12:40:03;91373.13;;;9.24;100.00
3464;BME280;3551;41.578;24.706;2023-03-01T12:42:40;91381.09;;;9.17;100.00
3464;BME280;3551;41.578;24.706;2023-03-01T12:51:37;91379.81;;;8.72;100.00
3464;BME280;3551;41.578;24.706;2023-03-01T12:54:47;91370.00;;;8.97;100.00
3464;BME280;3551;41.578;24.706;2023-03-01T12:57:52;91376.72;;;8.70;100.00
3464;BME280;3551;41.578;24.706;2023-03-01T13:09:54;91380.94;;;8.71;100.00
3464;BME280;3551;41.578;24.706;2023-03-01T13:16:11;91378.88;;;8.40;100.00
3464;BME280;3551;41.578;24.706;2023-03-01T13:19:10;91380.00;;;8.39;100.00
3464;BME280;3551;41.578;24.706;2023-03-01T13:22:33;91377.50;;;8.64;100.00
3464;BME280;3551;41.578;24.706;2023-03-01T13:32:08;91380.09;;;8.57;100.00
3464;BME280;3551;41.578;24.706;2023-03-01T13:41:48;91371.03;;;8.68;100.00
3464;BME280;3551;41.578;24.706;2023-03-01T13:44:40;91386.28;;;8.75;100.00
3464;BME280;3551;41.578;24.706;2023-03-01T13:53:47;91389.78;;;8.89;100.00
3464;BME280;3551;41.578;24.706;2023-03-01T13:56:33;91375.66;;;8.78;100.00
3464;BME280;3551;41.578;24.706;2023-03-01T14:03:10;91370.63;;;8.63;100.00
3464;BME280;3551;41.578;24.706;2023-03-01T14:06:10;91370.25;;;8.68;100.00
3464;BME280;3551;41.578;24.706;2023-03-01T14:28:50;91387.91;;;8.25;100.00
3464;BME280;3551;41.578;24.706;2023-03-01T14:32:15;91386.81;;;8.33;100.00
3464;BME280;3551;41.578;24.706;2023-03-01T14:35:18;91387.75;;;8.04;100.00
3464;BME280;3551;41.578;24.706;2023-03-01T14:38:42;91404.66;;;7.78;100.00
3464;BME280;3551;41.578;24.706;2023-03-01T14:41:24;91399.09;;;7.97;100.00
3464;BME280;3551;41.578;24.706;2023-03-01T14:57:00;91399.75;;;7.80;100.00
3464;BME280;3551;41.578;24.706;2023-03-01T15:00:05;91406.97;;;7.79;100.00
3464;BME280;3551;41.578;24.706;2023-03-01T15:03:00;91396.00;;;7.84;100.00
3464;BME280;3551;41.578;24.706;2023-03-01T15:05:50;91387.97;;;7.81;100.00
3464;BME280;3551;41.578;24.706;2023-03-01T15:08:36;91386.34;;;7.69;100.00
3464;BME280;3551;41.578;24.706;2023-03-01T15:11:31;91387.19;;;7.36;100.00
3464;BME280;3551;41.578;24.706;2023-03-01T15:17:30;91393.16;;;6.90;100.00
3464;BME280;3551;41.578;24.706;2023-03-01T15:20:22;91393.72;;;6.72;100.00
3464;BME280;3551;41.578;24.706;2023-03-01T15:23:04;91398.97;;;6.65;100.00
3464;BME280;3551;41.578;24.706;2023-03-01T15:25:46;91404.47;;;6.50;100.00
3464;BME280;3551;41.578;24.706;2023-03-01T17:05:35;91470.47;;;6.77;100.00
3464;BME280;3551;41.578;24.706;2023-03-01T17:08:18;91472.13;;;6.30;100.00
3464;BME280;3551;41.578;24.706;2023-03-01T17:11:15;91465.63;;;6.27;100.00
3464;BME280;3551;41.578;24.706;2023-03-01T17:20:49;91462.59;;;5.57;100.00
3464;BME280;3551;41.578;24.706;2023-03-01T17:23:39;91460.81;;;5.87;100.00
3464;BME280;3551;41.578;24.706;2023-03-01T17:26:17;91458.84;;;5.84;100.00
3464;BME280;3551;41.578;24.706;2023-03-01T17:28:48;91460.94;;;5.94;100.00
3464;BME280;3551;41.578;24.706;2023-03-01T17:34:38;91461.03;;;5.79;100.00
3464;BME280;3551;41.578;24.706;2023-03-01T17:43:17;91453.97;;;5.41;100.00